createdAt,value
2019-05-11T00:01:18.657Z,11.18
2019-05-11T00:06:24.101Z,11.20
2019-05-11T00:11:29.582Z,11.23
2019-05-11T00:16:35.010Z,11.13
2019-05-11T00:21:40.341Z,11.01
2019-05-11T00:26:45.678Z,11.22
2019-05-11T00:31:51.855Z,11.16
2019-05-11T00:36:57.402Z,10.97
2019-05-11T00:42:02.882Z,11.21
2019-05-11T00:47:08.286Z,11.08
2019-05-11T00:52:13.681Z,11.17
2019-05-11T00:57:18.977Z,11.32
2019-05-11T01:02:24.349Z,11.42
2019-05-11T01:07:29.866Z,11.38
2019-05-11T01:12:35.336Z,11.18
2019-05-11T01:17:40.665Z,11.31
2019-05-11T01:22:45.996Z,11.36
2019-05-11T01:27:51.585Z,11.26
2019-05-11T01:32:57.058Z,10.63
2019-05-11T01:38:02.394Z,10.38
2019-05-11T01:43:07.759Z,10.35
2019-05-11T01:48:13.158Z,10.62
2019-05-11T01:53:20.690Z,10.74
2019-05-11T01:58:26.686Z,10.89
2019-05-11T02:03:35.823Z,10.97
2019-05-11T02:08:41.782Z,10.89
2019-05-11T02:13:47.480Z,10.74
2019-05-11T02:18:55.718Z,10.78
2019-05-11T02:24:02.742Z,10.69
2019-05-11T02:29:08.955Z,10.40
2019-05-11T02:34:16.691Z,10.39
2019-05-11T02:39:23.717Z,10.26
2019-05-11T02:44:30.591Z,10.13
2019-05-11T02:49:38.742Z,9.79
2019-05-11T02:54:46.943Z,9.54
2019-05-11T02:59:52.767Z,9.52
2019-05-11T03:04:58.700Z,9.60
2019-05-11T03:10:06.211Z,9.32
2019-05-11T03:15:13.284Z,9.32
2019-05-11T03:20:20.732Z,9.27
2019-05-11T03:25:28.509Z,9.34
2019-05-11T03:30:35.855Z,9.29
2019-05-11T03:35:42.349Z,9.12
2019-05-11T03:40:48.901Z,8.80
2019-05-11T03:45:55.565Z,8.66
2019-05-11T03:51:05.863Z,8.51
2019-05-11T03:56:12.091Z,8.68
2019-05-11T04:01:18.359Z,8.54
2019-05-11T04:06:24.512Z,8.64
2019-05-11T04:11:30.895Z,8.66
2019-05-11T04:16:37.943Z,8.73
2019-05-11T04:21:44.942Z,8.62
2019-05-11T04:26:53.170Z,8.38
2019-05-11T04:32:00.220Z,8.31
2019-05-11T04:37:07.082Z,8.33
2019-05-11T04:42:15.424Z,8.51
2019-05-11T04:47:21.874Z,8.54
2019-05-11T04:52:37.231Z,8.52
2019-05-11T04:57:43.078Z,8.63
2019-05-11T05:02:50.741Z,8.76
2019-05-11T05:08:09.261Z,8.78
2019-05-11T05:13:10.589Z,8.79
2019-05-11T05:18:16.109Z,8.77
2019-05-11T05:23:22.940Z,8.79
2019-05-11T05:28:29.334Z,8.97
2019-05-11T05:33:35.444Z,9.11
2019-05-11T05:38:42.622Z,9.15
2019-05-11T05:43:49.055Z,9.39
2019-05-11T05:48:55.124Z,9.60
2019-05-11T05:54:01.495Z,9.73
2019-05-11T05:59:07.876Z,9.86
2019-05-11T06:04:15.019Z,9.98
2019-05-11T06:09:21.412Z,10.01
2019-05-11T06:14:27.306Z,10.09
2019-05-11T06:19:35.537Z,10.09
2019-05-11T06:24:42.775Z,10.22
2019-05-11T06:29:49.890Z,10.48
2019-05-11T06:34:55.449Z,10.68
2019-05-11T06:40:01.567Z,10.77
2019-05-11T06:45:10.032Z,10.77
2019-05-11T06:50:17.690Z,10.85
2019-05-11T06:55:25.989Z,10.92
2019-05-11T07:00:32.692Z,10.99
2019-05-11T07:05:38.050Z,11.13
2019-05-11T07:10:45.531Z,11.42
2019-05-11T07:15:52.834Z,11.87
2019-05-11T07:20:59.508Z,12.09
2019-05-11T07:26:06.595Z,12.09
2019-05-11T07:31:16.511Z,12.05
2019-05-11T07:36:23.710Z,11.70
2019-05-11T07:41:30.498Z,11.87
2019-05-11T07:46:37.705Z,12.12
2019-05-11T07:51:44.631Z,11.85
2019-05-11T07:56:51.250Z,11.99
2019-05-11T08:02:14.030Z,12.12
2019-05-11T08:07:20.304Z,12.02
2019-05-11T08:12:28.482Z,12.10
2019-05-11T08:17:37.937Z,12.44
2019-05-11T08:22:43.750Z,12.78
2019-05-11T08:27:51.066Z,12.72
2019-05-11T08:32:58.456Z,12.71
2019-05-11T08:38:05.555Z,12.98
2019-05-11T08:43:11.102Z,12.88
2019-05-11T08:48:18.547Z,12.77
2019-05-11T08:53:25.497Z,13.10
2019-05-11T08:58:34.434Z,13.37
2019-05-11T09:03:41.814Z,13.95
2019-05-11T09:08:49.489Z,13.95
2019-05-11T09:13:57.853Z,13.99
2019-05-11T09:19:05.362Z,14.60
2019-05-11T09:24:12.530Z,14.71
2019-05-11T09:29:19.870Z,15.31
2019-05-11T09:34:28.853Z,15.71
2019-05-11T09:39:34.719Z,15.77
2019-05-11T09:44:41.438Z,15.87
2019-05-11T09:49:50.847Z,15.81
2019-05-11T09:54:58.018Z,15.28
2019-05-11T10:00:04.355Z,15.75
2019-05-11T10:05:11.486Z,16.04
2019-05-11T10:10:18.848Z,15.52
2019-05-11T10:15:27.792Z,14.97
2019-05-11T10:20:34.915Z,16.05
2019-05-11T10:25:41.267Z,17.12
2019-05-11T10:30:48.771Z,16.76
2019-05-11T10:35:55.402Z,16.95
2019-05-11T10:41:02.037Z,18.53
2019-05-11T10:46:18.771Z,18.73
2019-05-11T10:51:18.355Z,18.68
2019-05-11T10:56:25.662Z,18.33
2019-05-11T11:01:32.969Z,17.83
2019-05-11T11:06:40.326Z,17.78
2019-05-11T11:11:50.535Z,17.78
2019-05-11T11:17:00.433Z,17.65
2019-05-11T11:22:30.301Z,17.77
2019-05-11T11:27:19.386Z,18.70
2019-05-11T11:32:27.824Z,19.25
2019-05-11T11:37:34.366Z,20.19
2019-05-11T11:42:41.119Z,19.97
2019-05-11T11:47:49.343Z,19.34
2019-05-11T11:52:57.819Z,19.68
2019-05-11T11:58:05.106Z,20.29
2019-05-11T12:03:10.958Z,20.29
2019-05-11T12:08:18.831Z,20.28
2019-05-11T12:13:27.480Z,19.84
2019-05-11T12:18:34.155Z,19.99
2019-05-11T12:23:40.746Z,19.13
2019-05-11T12:28:49.061Z,19.53
2019-05-11T12:34:05.800Z,19.96
2019-05-11T12:39:12.793Z,19.75
2019-05-11T12:44:19.226Z,20.22
2019-05-11T12:49:28.911Z,20.31
2019-05-11T12:54:35.306Z,20.44
2019-05-11T12:59:40.726Z,19.86
2019-05-11T13:04:47.981Z,19.79
2019-05-11T13:09:53.751Z,19.79
2019-05-11T13:15:02.527Z,19.44
2019-05-11T13:20:13.045Z,19.87
2019-05-11T13:25:19.185Z,19.64
2019-05-11T13:30:27.820Z,19.90
2019-05-11T13:35:33.874Z,19.94
2019-05-11T13:40:39.927Z,19.95
2019-05-11T13:45:47.778Z,18.66
2019-05-11T13:50:53.965Z,18.77
2019-05-11T13:56:00.178Z,18.80
2019-05-11T14:01:08.085Z,19.51
2019-05-11T14:06:15.506Z,19.65
2019-05-11T14:11:21.275Z,19.38
2019-05-11T14:16:27.835Z,18.81
2019-05-11T14:21:34.747Z,18.13
2019-05-11T14:26:40.671Z,17.94
2019-05-11T14:31:48.869Z,18.01
2019-05-11T14:36:55.125Z,18.32
2019-05-11T14:42:01.426Z,18.49
2019-05-11T14:47:08.536Z,17.36
2019-05-11T14:52:14.974Z,17.85
2019-05-11T14:57:21.589Z,17.71
2019-05-11T15:02:37.797Z,17.08
2019-05-11T15:07:43.680Z,17.31
2019-05-11T15:12:50.083Z,16.59
2019-05-11T15:17:58.160Z,15.84
2019-05-11T15:23:05.013Z,15.47
2019-05-11T15:28:11.173Z,15.53
2019-05-11T15:33:18.321Z,15.20
2019-05-11T15:38:24.806Z,15.14
2019-05-11T15:43:31.325Z,14.89
2019-05-11T15:48:58.448Z,14.82
2019-05-11T15:53:53.550Z,14.72
2019-05-11T15:58:59.058Z,14.43
2019-05-11T16:04:05.059Z,14.20
2019-05-11T16:09:13.874Z,14.12
2019-05-11T16:14:19.627Z,13.99
2019-05-11T16:19:27.985Z,13.95
2019-05-11T16:24:34.126Z,13.82
2019-05-11T16:29:40.595Z,13.71
2019-05-11T16:34:46.974Z,13.62
2019-05-11T16:39:53.610Z,13.54
2019-05-11T16:45:00.063Z,13.39
2019-05-11T16:50:08.378Z,13.39
2019-05-11T16:55:15.350Z,13.25
2019-05-11T17:00:22.789Z,13.29
2019-05-11T17:05:33.253Z,13.21
2019-05-11T17:10:36.625Z,13.04
2019-05-11T17:15:43.323Z,12.85
2019-05-11T17:20:49.267Z,12.99
2019-05-11T17:25:57.923Z,12.80
2019-05-11T17:31:03.542Z,12.69
2019-05-11T17:36:09.366Z,12.68
2019-05-11T17:41:15.035Z,12.49
2019-05-11T17:46:22.204Z,12.50
2019-05-11T17:51:28.621Z,12.43
2019-05-11T17:56:35.345Z,12.32
2019-05-11T18:01:42.023Z,12.24
2019-05-11T18:06:48.503Z,12.11
2019-05-11T18:11:54.825Z,12.06
2019-05-11T18:17:00.891Z,12.12
2019-05-11T18:22:08.316Z,12.06
2019-05-11T18:27:14.532Z,12.02
2019-05-11T18:32:20.471Z,11.89
2019-05-11T18:37:28.094Z,11.86
2019-05-11T18:42:33.928Z,11.65
2019-05-11T18:47:39.968Z,11.50
2019-05-11T18:52:48.576Z,11.41
2019-05-11T18:57:53.751Z,11.32
2019-05-11T19:02:59.650Z,11.31
2019-05-11T19:08:06.005Z,11.20
2019-05-11T19:13:11.583Z,11.16
2019-05-11T19:18:17.868Z,11.02
2019-05-11T19:23:23.630Z,11.01
2019-05-11T19:28:30.324Z,10.95
2019-05-11T19:33:38.208Z,10.86
2019-05-11T19:38:43.804Z,10.76
2019-05-11T19:43:50.517Z,10.64
2019-05-11T19:48:58.110Z,10.56
2019-05-11T19:54:04.489Z,10.62
2019-05-11T19:59:10.689Z,10.43
2019-05-11T20:04:18.807Z,10.34
2019-05-11T20:09:28.311Z,10.30
2019-05-11T20:14:34.044Z,10.28
2019-05-11T20:19:40.789Z,10.20
2019-05-11T20:24:47.657Z,10.00
2019-05-11T20:29:54.419Z,9.81
2019-05-11T20:35:00.911Z,9.65
2019-05-11T20:40:09.088Z,9.53
2019-05-11T20:45:14.389Z,9.42
2019-05-11T20:50:20.600Z,9.47
2019-05-11T20:55:28.436Z,9.68
2019-05-11T21:00:35.630Z,9.87
2019-05-11T21:05:42.481Z,9.85
2019-05-11T21:10:49.049Z,9.77
2019-05-11T21:15:55.929Z,9.68
2019-05-11T21:21:01.550Z,9.63
2019-05-11T21:26:09.973Z,9.64
2019-05-11T21:31:18.635Z,9.59
2019-05-11T21:36:24.450Z,9.57
2019-05-11T21:41:31.236Z,9.64
2019-05-11T21:46:38.870Z,9.67
2019-05-11T21:51:45.468Z,9.62
2019-05-11T21:56:51.120Z,9.55
2019-05-11T22:01:57.562Z,9.56
2019-05-11T22:07:03.743Z,9.50
2019-05-11T22:12:10.782Z,9.58
2019-05-11T22:17:18.194Z,9.57
2019-05-11T22:22:28.534Z,9.50
2019-05-11T22:27:33.809Z,9.52
2019-05-11T22:32:39.449Z,9.43
2019-05-11T22:37:45.829Z,9.31
2019-05-11T22:42:53.103Z,9.32
2019-05-11T22:48:00.048Z,9.30
2019-05-11T22:53:05.530Z,9.33
2019-05-11T22:58:11.723Z,9.30
2019-05-11T23:03:19.878Z,9.31
2019-05-11T23:08:26.401Z,9.24
2019-05-11T23:13:33.622Z,9.30
2019-05-11T23:18:41.168Z,9.29
2019-05-11T23:23:47.892Z,9.36
2019-05-11T23:28:53.943Z,9.28
2019-05-11T23:33:59.821Z,9.27
2019-05-11T23:39:08.972Z,9.30
2019-05-11T23:44:14.461Z,9.18
2019-05-11T23:49:20.581Z,9.14
2019-05-11T23:54:27.795Z,9.10
2019-05-11T23:59:34.209Z,8.90
